Jérusalem, Israël

10:31 IST le 23 novembre 2014 (GMT +0200)
IISRAELG2 | Change Station
CLOSE
Current Station
Stations météorologiques personnelles
Location: Givat Zeev, ISRAEL
Altitude: 2543 ft
Stations météo à proximité

Alt. 2543 ft 31.86 °N, 35.16 °E | Updated 9 minutes ago

Rain
Pluie
55.3 ° F
Paraît 55.3 ° F
N
5.0
Vent Variable Vent de OSO
Gusts 10.0 mph

Aujourd'hui
Haut(e) -- | Bas -- ° F
--% Risque de précip.
Hier
Haut(e) -- | Bas -- ° F
Precip. -- pouce
6:14 AM 4:36 PM
Nouvelle lune, 1% visible
Pression 30.04 pouce
Visibilité 6.2 Miles terrestres
Nuages Nuages épars 4500 ft
Point de rosée 50 ° F
Humidité 83%
Précipitations 0.00 pouce
Profondeur de la couche neigeuse Non disponible.
UV sur 12
Pollen Non disponible.
Qualité de l'air Non disponible.
Flu Activity Non disponible.
METAR LLBG 230820Z 17006KT 9999 SCT045 17/12 Q1017 NOSIG RMK SCT080

More Conditions Fewer Conditions

Pression 30.04 pouce
Visibilité 6.2 Miles terrestres
Nuages Nuages épars 4500 ft
Point de rosée 50 ° F
Humidité 83%
Précipitations 0.00 pouce
Profondeur de la couche neigeuse Non disponible.
UV sur 12
Pollen Non disponible.
Qualité de l'air Non disponible.
Flu Activity Non disponible.
METAR LLBG 230820Z 17006KT 9999 SCT045 17/12 Q1017 NOSIG RMK SCT080

More Conditions Fewer Conditions

10-Day Weather Forecast

Almanac

Astronomie

Nov. 23, 2014 Lever Coucher
Temps réel
Crépuscule civil
Crépuscule nautique
Crépuscule astronomique
Lune
Durée de lumière visible
Longueur du jour
Tomorrow will be .
, % of the Moon is Illuminated

Extrêmes aujourd'hui

Country Highs Country Lows

Community

WunderPhotos

Upload Photos

1,773,024 Photos téléchargées !

WunderBlogs® & News

Nearby

Qualité de l'air

  Qualité de l'air Indice de la qualité de l'air Polluant
Not available.

Épaisseur de neige

Station Depth Altitude

Activité sismique

Ville Distance Mag. Time & Date
Minimum magnitude displayed is 2.5.

Températures des eaux côtières

Lieu Température

Stations météo à proximité